Time;durP1;ratioP1;P1;durP2;ratioP2;P2;SDS_P1;SDS_P2;PMS_P1;PMS_P2;Temp;Humidity;BMP_temperature;BMP_pressure;BME280_temperature;BME280_humidity;BME280_pressure;Samples;Min_cycle;Max_cycle;Signal;HPM_P1;HPM_P2
2022/07/06 00:01:19;;;;;;;6.47;3.33;;;640.70;2432.00;;;;;;5108633;28;20028;-77
2022/07/06 00:03:46;;;;;;;7.15;3.45;;;640.50;2432.00;;;;;;5109536;28;20011;-78
2022/07/06 00:06:11;;;;;;;6.15;3.60;;;640.50;2432.00;;;;;;5092564;28;20078;-78
2022/07/06 00:08:38;;;;;;;7.22;4.25;;;640.50;2432.00;;;;;;5092701;28;20020;-78
2022/07/06 00:11:04;;;;;;;7.28;3.33;;;640.40;2432.00;;;;;;5091560;28;20027;-78
2022/07/06 00:13:29;;;;;;;7.55;3.50;;;640.40;2432.00;;;;;;5092345;28;20119;-78
2022/07/06 00:15:55;;;;;;;11.20;3.55;;;640.40;2432.00;;;;;;5101180;28;20537;-78
2022/07/06 00:18:21;;;;;;;6.45;3.60;;;640.40;2432.00;;;;;;5090832;28;20028;-77
2022/07/06 00:20:47;;;;;;;6.18;3.13;;;640.20;2432.00;;;;;;5092582;28;20024;-78
2022/07/06 00:23:12;;;;;;;5.13;3.35;;;640.20;2432.00;;;;;;5092650;28;20098;-77
2022/07/06 00:25:38;;;;;;;7.93;3.70;;;640.10;2432.00;;;;;;5092123;28;20028;-78
2022/07/06 00:28:04;;;;;;;5.82;3.10;;;640.00;2432.00;;;;;;5090951;28;20032;-78
2022/07/06 00:30:30;;;;;;;8.55;3.63;;;640.00;2432.00;;;;;;5090737;28;20016;-77
2022/07/06 00:32:57;;;;;;;6.35;3.95;;;640.10;2432.00;;;;;;5092337;28;20080;-78
2022/07/06 00:35:24;;;;;;;8.20;3.38;;;640.00;2432.00;;;;;;5089600;28;20477;-78
2022/07/06 00:37:50;;;;;;;8.25;3.95;;;615.30;2432.00;;;;;;5090918;28;20031;-77
2022/07/06 00:40:16;;;;;;;4.85;3.40;;;615.00;2432.00;;;;;;5090573;28;20081;-78
2022/07/06 00:42:43;;;;;;;8.10;3.58;;;614.80;2432.00;;;;;;5088173;28;20016;-78
2022/07/06 00:45:11;;;;;;;5.32;3.33;;;615.20;2432.00;;;;;;5090659;28;20016;-76
2022/07/06 00:47:38;;;;;;;9.30;3.65;;;615.10;2432.00;;;;;;5089909;28;20035;-77
2022/07/06 00:50:15;;;;;;;6.65;4.18;;;615.00;2432.00;;;;;;5088984;28;20019;-78
2022/07/06 00:52:42;;;;;;;11.40;4.20;;;615.10;2432.00;;;;;;5090541;28;20473;-78
2022/07/06 00:55:13;;;;;;;8.32;4.25;;;615.10;2432.00;;;;;;5091988;28;20036;-77
2022/07/06 00:57:40;;;;;;;5.93;3.95;;;615.00;2432.00;;;;;;5089720;28;20036;-78
2022/07/06 01:00:09;;;;;;;6.72;3.70;;;615.20;2432.00;;;;;;5090844;28;20108;-78
2022/07/06 01:02:35;;;;;;;7.05;3.90;;;615.20;2432.00;;;;;;5090562;28;20047;-78
2022/07/06 01:05:03;;;;;;;11.13;3.90;;;615.10;2432.00;;;;;;5110428;28;20077;-78
2022/07/06 01:07:30;;;;;;;6.55;3.42;;;615.10;2432.00;;;;;;5106435;28;20059;-78
2022/07/06 01:09:56;;;;;;;10.52;3.78;;;615.10;2432.00;;;;;;5091723;28;20020;-78
2022/07/06 01:12:22;;;;;;;7.18;4.50;;;615.10;2432.00;;;;;;5091741;28;20024;-77
2022/07/06 01:14:47;;;;;;;10.40;4.25;;;615.00;2432.00;;;;;;5089603;28;20027;-78
2022/07/06 01:17:15;;;;;;;5.55;3.58;;;614.90;2432.00;;;;;;5090458;28;20481;-78
2022/07/06 01:19:40;;;;;;;8.63;3.67;;;615.10;2432.00;;;;;;5090128;28;20024;-78
2022/07/06 01:22:06;;;;;;;6.93;4.30;;;615.10;2432.00;;;;;;5092123;28;20046;-77
2022/07/06 01:24:36;;;;;;;4.93;3.58;;;615.10;2432.00;;;;;;5090052;28;20024;-78
2022/07/06 01:27:03;;;;;;;8.27;3.63;;;615.00;2432.00;;;;;;5091476;28;20102;-77
2022/07/06 01:29:29;;;;;;;7.82;3.65;;;615.00;2432.00;;;;;;5100246;28;20027;-78
2022/07/06 01:31:55;;;;;;;5.60;3.13;;;615.10;2432.00;;;;;;5092872;28;20443;-77
2022/07/06 01:34:21;;;;;;;6.97;3.95;;;615.00;2432.00;;;;;;5090204;28;20027;-77
2022/07/06 01:36:47;;;;;;;5.43;3.85;;;615.00;2432.00;;;;;;5091288;28;20017;-77
2022/07/06 01:39:13;;;;;;;9.63;4.00;;;615.00;2432.00;;;;;;5090528;28;20109;-78
2022/07/06 01:41:39;;;;;;;8.02;4.00;;;615.10;2432.00;;;;;;5090061;28;20020;-78
2022/07/06 01:44:05;;;;;;;7.75;3.80;;;615.10;2432.00;;;;;;5088703;28;20158;-78
2022/07/06 01:46:31;;;;;;;6.85;4.60;;;615.00;2432.00;;;;;;5091199;28;20044;-78
2022/07/06 01:48:57;;;;;;;4.93;3.75;;;615.00;2432.00;;;;;;5090393;28;20024;-78
2022/07/06 01:51:24;;;;;;;6.95;3.97;;;614.80;2432.00;;;;;;5089281;28;20035;-78
2022/07/06 01:53:50;;;;;;;13.13;4.60;;;615.10;2432.00;;;;;;5089821;28;20554;-78
2022/07/06 01:56:17;;;;;;;7.10;3.85;;;615.10;2432.00;;;;;;5104230;28;20062;-78
2022/07/06 01:58:43;;;;;;;7.97;4.32;;;615.00;2432.00;;;;;;5093239;28;20015;-78
2022/07/06 02:01:14;;;;;;;6.72;4.13;;;615.00;2432.00;;;;;;5095999;28;20031;-78
2022/07/06 02:03:39;;;;;;;6.80;4.28;;;614.90;2432.00;;;;;;5097001;28;20030;-78
2022/07/06 02:06:06;;;;;;;5.80;4.38;;;614.80;2432.00;;;;;;5094504;28;20460;-78
2022/07/06 02:08:33;;;;;;;7.53;4.07;;;614.80;2432.00;;;;;;5096995;28;20473;-78
2022/07/06 02:10:59;;;;;;;6.93;4.15;;;614.80;2432.00;;;;;;5115424;28;20080;-78
2022/07/06 02:13:25;;;;;;;7.18;3.75;;;614.80;2432.00;;;;;;5096770;28;20045;-78
2022/07/06 02:15:51;;;;;;;6.07;4.10;;;614.80;2432.00;;;;;;5097097;28;20026;-78
2022/07/06 02:18:17;;;;;;;7.45;3.28;;;614.80;2432.00;;;;;;5097104;28;20106;-77
2022/07/06 02:20:43;;;;;;;6.15;4.10;;;614.80;2432.00;;;;;;5096199;28;20451;-77
2022/07/06 02:23:09;;;;;;;6.45;4.20;;;614.80;2432.00;;;;;;5096977;28;20027;-78
2022/07/06 02:25:35;;;;;;;6.82;4.38;;;614.80;2432.00;;;;;;5096709;28;20024;-78
2022/07/06 02:28:01;;;;;;;8.60;4.57;;;614.80;2432.00;;;;;;5115063;28;20443;-77
2022/07/06 02:30:27;;;;;;;6.15;3.70;;;614.80;2432.00;;;;;;5100261;27;20106;-78
2022/07/06 02:32:52;;;;;;;7.32;4.00;;;614.70;2432.00;;;;;;5116914;27;20027;-77
2022/07/06 02:35:18;;;;;;;7.75;4.18;;;614.60;2432.00;;;;;;5096580;28;20046;-78
2022/07/06 02:37:44;;;;;;;8.02;4.53;;;614.50;2432.00;;;;;;5096710;28;20023;-77
2022/07/06 02:40:10;;;;;;;8.85;4.47;;;614.40;2432.00;;;;;;5114960;28;20015;-78
2022/07/06 02:42:35;;;;;;;6.03;4.22;;;614.40;2432.00;;;;;;5114755;28;20027;-77
2022/07/06 02:45:01;;;;;;;5.43;3.47;;;614.50;2432.00;;;;;;5099524;28;20032;-78
2022/07/06 02:47:27;;;;;;;8.80;4.78;;;614.50;2432.00;;;;;;5114592;28;20028;-77
2022/07/06 02:49:53;;;;;;;8.15;4.60;;;614.40;2432.00;;;;;;5096412;28;20019;-78
2022/07/06 02:52:19;;;;;;;7.95;4.00;;;589.70;2432.00;;;;;;5114626;28;20095;-78
2022/07/06 02:54:45;;;;;;;6.28;3.90;;;589.70;2432.00;;;;;;5095985;28;20024;-77
2022/07/06 02:57:10;;;;;;;5.35;3.83;;;589.70;2432.00;;;;;;5114525;28;20382;-77
2022/07/06 02:59:37;;;;;;;8.48;4.57;;;589.70;2432.00;;;;;;5096352;28;20527;-78
2022/07/06 03:02:05;;;;;;;5.22;4.13;;;589.70;2432.00;;;;;;5114323;28;20049;-78
2022/07/06 03:04:31;;;;;;;12.50;4.70;;;589.60;2432.00;;;;;;5111935;28;20045;-77
2022/07/06 03:06:57;;;;;;;6.32;3.63;;;589.60;2432.00;;;;;;5095503;28;20036;-78
2022/07/06 03:09:22;;;;;;;7.00;3.70;;;589.60;2432.00;;;;;;5114170;28;20099;-78
2022/07/06 03:11:48;;;;;;;8.32;4.43;;;589.50;2432.00;;;;;;5110953;28;20076;-78
2022/07/06 03:14:14;;;;;;;6.18;4.43;;;589.50;2432.00;;;;;;5095611;28;20020;-77
2022/07/06 03:16:40;;;;;;;5.85;4.03;;;589.40;2432.00;;;;;;5096075;28;20070;-77
2022/07/06 03:19:05;;;;;;;8.85;3.90;;;589.40;2432.00;;;;;;5113834;28;20363;-78
2022/07/06 03:21:31;;;;;;;8.20;4.47;;;589.40;2432.00;;;;;;5095702;28;20084;-78
2022/07/06 03:23:57;;;;;;;6.25;4.10;;;589.40;2432.00;;;;;;5095581;28;20039;-78
2022/07/06 03:26:23;;;;;;;5.95;4.22;;;589.40;2432.00;;;;;;5095789;28;20028;-78
2022/07/06 03:28:49;;;;;;;4.80;3.97;;;589.40;2432.00;;;;;;5110911;28;20469;-77
2022/07/06 03:31:14;;;;;;;8.02;4.63;;;589.50;2432.00;;;;;;5113147;28;20026;-77
2022/07/06 03:33:40;;;;;;;5.55;4.53;;;589.50;2432.00;;;;;;5095512;28;20019;-77
2022/07/06 03:36:07;;;;;;;6.07;4.25;;;589.40;2432.00;;;;;;5095211;28;20019;-77
2022/07/06 03:38:33;;;;;;;7.80;4.80;;;589.30;2432.00;;;;;;5113945;28;20038;-78
2022/07/06 03:40:59;;;;;;;6.28;4.72;;;589.20;2432.00;;;;;;5095370;28;20020;-79
2022/07/06 03:43:25;;;;;;;5.20;3.83;;;589.20;2432.00;;;;;;5119649;27;20497;-78
2022/07/06 03:45:50;;;;;;;5.82;4.00;;;589.20;2432.00;;;;;;5109583;27;20032;-79
2022/07/06 03:48:16;;;;;;;5.78;4.68;;;589.30;2432.00;;;;;;5115967;27;20080;-79
2022/07/06 03:50:42;;;;;;;5.10;3.95;;;589.20;2432.00;;;;;;5096445;28;20019;-79
2022/07/06 03:53:08;;;;;;;6.80;4.47;;;589.30;2432.00;;;;;;5095377;28;20027;-77
2022/07/06 03:55:33;;;;;;;5.90;3.97;;;589.10;2432.00;;;;;;5113073;28;20492;-78
2022/07/06 03:57:59;;;;;;;4.75;4.05;;;589.10;2432.00;;;;;;5113453;28;20033;-78
2022/07/06 04:00:25;;;;;;;7.53;4.65;;;589.10;2432.00;;;;;;5106171;27;20495;-80
2022/07/06 04:02:50;;;;;;;9.45;4.93;;;589.10;2432.00;;;;;;5100921;28;20023;-82
2022/07/06 04:05:20;;;;;;;8.38;4.82;;;589.10;2432.00;;;;;;5095467;28;20492;-80
2022/07/06 04:07:48;;;;;;;5.88;4.18;;;589.00;2432.00;;;;;;5094600;28;20039;-78
2022/07/06 04:10:14;;;;;;;7.70;4.75;;;589.10;2432.00;;;;;;5094991;28;20023;-78
2022/07/06 04:12:44;;;;;;;6.00;4.50;;;589.00;2432.00;;;;;;5094306;28;20489;-79
2022/07/06 04:15:11;;;;;;;6.55;4.95;;;564.10;2432.00;;;;;;5095107;28;20022;-79
2022/07/06 04:17:52;;;;;;;6.93;4.85;;;588.90;2432.00;;;;;;5113149;28;20540;-80
2022/07/06 04:20:22;;;;;;;7.60;4.22;;;588.90;2432.00;;;;;;5092462;28;20043;-79
2022/07/06 04:22:48;;;;;;;5.35;4.60;;;588.90;2432.00;;;;;;5094732;28;20478;-77
2022/07/06 04:25:14;;;;;;;5.38;4.40;;;588.80;2432.00;;;;;;5094114;28;20028;-80
2022/07/06 04:27:40;;;;;;;5.95;4.72;;;589.00;2432.00;;;;;;5082673;28;20492;-80
2022/07/06 04:30:07;;;;;;;7.93;4.40;;;588.90;2432.00;;;;;;5094515;28;20038;-78
2022/07/06 04:32:33;;;;;;;7.00;4.93;;;588.80;2432.00;;;;;;5074867;28;20103;-80
2022/07/06 04:34:59;;;;;;;6.03;4.90;;;588.80;2432.00;;;;;;5103422;28;20023;-84
2022/07/06 04:37:25;;;;;;;5.18;4.25;;;588.80;2432.00;;;;;;5095106;28;20035;-82
2022/07/06 04:39:51;;;;;;;7.53;5.20;;;588.90;2432.00;;;;;;5095085;28;20026;-79
2022/07/06 04:42:16;;;;;;;7.63;4.80;;;588.90;2432.00;;;;;;5094835;28;20028;-81
2022/07/06 04:44:43;;;;;;;6.82;5.25;;;588.90;2432.00;;;;;;5113387;28;20469;-78
2022/07/06 04:47:08;;;;;;;6.53;4.45;;;588.90;2432.00;;;;;;5112735;28;20027;-80
2022/07/06 04:49:34;;;;;;;9.30;4.85;;;588.90;2432.00;;;;;;5094908;28;20027;-84
2022/07/06 04:52:00;;;;;;;10.40;5.15;;;589.00;2432.00;;;;;;5093913;28;20032;-82
2022/07/06 04:54:26;;;;;;;6.88;4.38;;;589.10;2432.00;;;;;;5095390;28;20030;-82
2022/07/06 04:56:51;;;;;;;5.18;4.22;;;589.10;2432.00;;;;;;5104150;28;20051;-79
2022/07/06 04:59:17;;;;;;;10.02;5.18;;;589.00;2432.00;;;;;;5114083;27;20050;-79
2022/07/06 05:01:43;;;;;;;6.53;4.20;;;589.10;2432.00;;;;;;5088023;28;20024;-83
2022/07/06 05:04:08;;;;;;;5.25;4.40;;;589.20;2432.00;;;;;;5087894;28;20073;-78
2022/07/06 05:06:34;;;;;;;13.48;4.47;;;589.20;2432.00;;;;;;5109973;28;20032;-82
2022/07/06 05:09:00;;;;;;;5.28;4.38;;;589.10;2432.00;;;;;;5106634;28;20087;-82
2022/07/06 05:11:27;;;;;;;5.50;4.57;;;589.10;2432.00;;;;;;5097844;28;20031;-81
2022/07/06 05:13:53;;;;;;;8.20;5.05;;;589.10;2432.00;;;;;;5095234;28;20043;-84
2022/07/06 05:16:19;;;;;;;6.57;4.60;;;589.20;2432.00;;;;;;5113359;28;20105;-84
2022/07/06 05:18:45;;;;;;;6.88;4.30;;;589.30;2432.00;;;;;;5094880;28;20473;-80
2022/07/06 05:21:10;;;;;;;6.53;4.18;;;589.30;2432.00;;;;;;5101912;28;20031;-81
2022/07/06 05:23:36;;;;;;;7.43;4.25;;;589.40;2432.00;;;;;;5095671;28;20427;-87
2022/07/06 05:26:02;;;;;;;5.80;4.72;;;589.40;2432.00;;;;;;5095731;28;20025;-85
2022/07/06 05:28:28;;;;;;;5.82;3.90;;;589.40;2432.00;;;;;;5096718;28;20039;-92
2022/07/06 05:30:53;;;;;;;6.22;4.90;;;589.40;2432.00;;;;;;5112718;28;20085;-86
2022/07/06 05:33:19;;;;;;;7.07;4.35;;;589.50;2432.00;;;;;;5102091;28;20028;-81
2022/07/06 05:35:45;;;;;;;7.18;5.18;;;589.60;2432.00;;;;;;5109807;28;20024;-80
2022/07/06 05:38:10;;;;;;;6.18;4.10;;;589.60;2432.00;;;;;;5115605;28;20031;-81
2022/07/06 05:40:37;;;;;;;9.45;4.45;;;589.70;2432.00;;;;;;5114024;28;20019;-82
2022/07/06 05:43:02;;;;;;;6.25;4.13;;;614.40;2432.00;;;;;;5098971;28;20020;-82
2022/07/06 05:45:29;;;;;;;7.80;4.22;;;589.70;2432.00;;;;;;5098398;28;20028;-83
2022/07/06 05:50:39;;;;;;;7.55;3.65;;;614.60;2432.00;;;;;;5117058;28;20034;-81
2022/07/06 05:53:06;;;;;;;4.22;3.47;;;614.50;2432.00;;;;;;5098762;28;20028;-80
2022/07/06 05:55:32;;;;;;;7.18;4.05;;;614.50;2432.00;;;;;;5109544;28;20044;-81
2022/07/06 05:57:58;;;;;;;5.28;3.63;;;614.60;2432.00;;;;;;5090759;28;20024;-82
2022/07/06 06:00:26;;;;;;;7.40;4.20;;;614.80;2432.00;;;;;;5086470;28;20022;-81
2022/07/06 06:02:53;;;;;;;4.07;3.20;;;614.90;2432.00;;;;;;5094694;28;20032;-81
2022/07/06 06:05:20;;;;;;;6.90;3.50;;;615.10;2432.00;;;;;;5094701;28;20085;-78
2022/07/06 06:07:48;;;;;;;4.57;3.15;;;615.10;2432.00;;;;;;5079259;28;20131;-78
2022/07/06 06:10:14;;;;;;;5.82;3.28;;;615.10;2432.00;;;;;;5095542;28;20066;-79
2022/07/06 06:12:41;;;;;;;5.55;3.53;;;615.20;2432.00;;;;;;5095140;28;20020;-79
2022/07/06 06:15:09;;;;;;;7.03;3.85;;;615.00;2432.00;;;;;;5093963;28;20027;-78
2022/07/06 06:17:36;;;;;;;4.43;3.95;;;614.90;2432.00;;;;;;5094117;28;20028;-79
2022/07/06 06:20:03;;;;;;;10.20;4.10;;;614.80;2432.00;;;;;;5097727;28;20475;-78
2022/07/06 06:22:29;;;;;;;5.15;3.67;;;614.80;2432.00;;;;;;5103799;28;20032;-79
2022/07/06 06:24:55;;;;;;;6.05;3.60;;;614.90;2432.00;;;;;;5093670;28;20529;-79
2022/07/06 06:27:21;;;;;;;6.03;3.60;;;614.90;2432.00;;;;;;5094078;28;20040;-79
2022/07/06 06:29:47;;;;;;;8.65;3.72;;;614.80;2432.00;;;;;;5093920;28;20666;-80
2022/07/06 06:32:13;;;;;;;7.35;4.00;;;615.00;2432.00;;;;;;5093934;28;20076;-78
2022/07/06 06:34:40;;;;;;;7.75;4.13;;;614.80;2432.00;;;;;;5094954;28;20117;-80
2022/07/06 06:37:06;;;;;;;5.05;3.88;;;614.90;2432.00;;;;;;5089392;28;20028;-79
2022/07/06 06:39:32;;;;;;;7.85;4.50;;;615.10;2432.00;;;;;;5083447;28;20085;-79
2022/07/06 06:41:58;;;;;;;6.40;4.38;;;615.10;2432.00;;;;;;5093337;28;20454;-79
2022/07/06 06:44:23;;;;;;;4.93;3.88;;;615.20;2432.00;;;;;;5093659;28;20027;-79
2022/07/06 06:46:50;;;;;;;9.18;3.97;;;615.20;2432.00;;;;;;5092552;28;20032;-79
2022/07/06 06:49:16;;;;;;;5.95;4.15;;;615.20;2432.00;;;;;;5107369;28;20367;-79
2022/07/06 06:51:42;;;;;;;7.07;4.18;;;640.00;2432.00;;;;;;5093286;28;20020;-79
2022/07/06 06:54:08;;;;;;;5.68;4.40;;;640.00;2432.00;;;;;;5093002;28;20043;-79
2022/07/06 06:56:33;;;;;;;15.90;5.18;;;640.00;2432.00;;;;;;5092936;28;20074;-79
2022/07/06 06:59:01;;;;;;;41.15;6.55;;;640.00;2432.00;;;;;;5093358;28;20059;-78
2022/07/06 07:01:26;;;;;;;4.93;3.85;;;640.10;2432.00;;;;;;5091952;28;20028;-79
2022/07/06 07:03:52;;;;;;;8.48;4.38;;;640.30;2432.00;;;;;;5094077;28;20106;-78
2022/07/06 07:06:18;;;;;;;32.15;5.00;;;640.50;2432.00;;;;;;5093780;28;20023;-77
2022/07/06 07:08:44;;;;;;;5.82;4.28;;;640.60;2432.00;;;;;;5093726;28;20020;-78
2022/07/06 07:11:09;;;;;;;5.18;3.17;;;640.40;2432.00;;;;;;5092625;28;20036;-79
2022/07/06 07:13:35;;;;;;;5.72;3.50;;;640.60;2432.00;;;;;;5089951;28;20385;-81
2022/07/06 07:16:01;;;;;;;6.78;3.58;;;640.70;2432.00;;;;;;5092883;28;20031;-84
2022/07/06 07:18:27;;;;;;;3.70;3.08;;;640.70;2432.00;;;;;;5093215;28;20540;-81
2022/07/06 07:20:52;;;;;;;4.32;2.58;;;640.70;2432.00;;;;;;5093367;28;20016;-84
2022/07/06 07:23:18;;;;;;;4.60;3.10;;;665.60;2432.00;;;;;;5093510;28;20024;-85
2022/07/06 07:25:44;;;;;;;5.45;2.95;;;665.80;2406.40;;;;;;5093333;28;20103;-85
2022/07/06 07:28:09;;;;;;;3.30;2.90;;;665.80;2380.80;;;;;;5093550;28;20032;-83
2022/07/06 07:30:35;;;;;;;6.03;2.92;;;665.80;2406.40;;;;;;5093585;28;20020;-83
2022/07/06 07:33:01;;;;;;;7.28;3.42;;;666.00;2380.80;;;;;;5093353;28;20032;-80
2022/07/06 07:35:27;;;;;;;4.50;2.95;;;666.10;2329.60;;;;;;5089822;28;20032;-87
2022/07/06 07:37:53;;;;;;;4.88;3.22;;;666.20;2304.00;;;;;;5093842;28;20024;-81
2022/07/06 07:40:19;;;;;;;4.20;3.00;;;666.20;2304.00;;;;;;5098166;28;20065;-83
2022/07/06 07:42:45;;;;;;;3.92;2.67;;;666.20;2278.40;;;;;;5101783;28;20036;-82
2022/07/06 07:45:12;;;;;;;8.52;2.80;;;666.20;2304.00;;;;;;5099178;28;20020;-86
2022/07/06 07:47:38;;;;;;;3.30;2.60;;;666.20;2304.00;;;;;;5096954;28;20036;-83
2022/07/06 07:50:05;;;;;;;5.25;3.15;;;666.50;2252.80;;;;;;5093747;28;20020;-85
2022/07/06 07:52:31;;;;;;;6.82;2.90;;;691.20;2201.60;;;;;;5094383;28;20557;-83
2022/07/06 07:54:57;;;;;;;5.85;3.13;;;691.20;2176.00;;;;;;5093332;28;20047;-87
2022/07/06 07:57:22;;;;;;;7.22;2.63;;;691.20;2201.60;;;;;;5093287;28;20055;-82
2022/07/06 07:59:48;;;;;;;10.93;3.25;;;691.30;2201.60;;;;;;5101393;28;20000;-88
2022/07/06 08:02:14;;;;;;;3.53;2.55;;;691.20;2176.00;;;;;;5092573;28;20024;-90
2022/07/06 08:04:40;;;;;;;8.05;2.83;;;691.30;2201.60;;;;;;5095901;28;20061;-89
2022/07/06 08:07:06;;;;;;;4.80;2.90;;;691.20;2150.40;;;;;;5097747;28;20459;-89
2022/07/06 08:09:33;;;;;;;3.80;2.72;;;691.40;2124.80;;;;;;5094142;28;20028;-89
2022/07/06 08:11:59;;;;;;;4.55;2.60;;;691.50;2099.20;;;;;;5095273;28;20020;-89
2022/07/06 08:14:25;;;;;;;7.15;3.22;;;691.60;2099.20;;;;;;5098126;28;20023;-86
2022/07/06 08:16:51;;;;;;;3.60;2.60;;;691.60;2073.60;;;;;;5098683;28;20078;-91
2022/07/06 08:19:17;;;;;;;5.10;2.72;;;691.70;2099.20;;;;;;5095496;28;20111;-93
2022/07/06 08:21:43;;;;;;;2.92;2.42;;;691.50;2099.20;;;;;;5092926;28;20051;-91
2022/07/06 08:24:09;;;;;;;10.15;2.75;;;691.70;2048.00;;;;;;5089429;28;20028;-88
2022/07/06 08:26:35;;;;;;;3.15;2.45;;;691.80;2073.60;;;;;;5096843;28;20549;-89
2022/07/06 08:29:01;;;;;;;4.50;2.65;;;691.80;2022.40;;;;;;5108928;28;20094;-83
2022/07/06 08:31:27;;;;;;;3.38;2.30;;;691.60;2022.40;;;;;;5101033;28;20392;-82
2022/07/06 08:33:54;;;;;;;4.45;2.78;;;691.70;1996.80;;;;;;5097116;28;20027;-82
2022/07/06 08:36:20;;;;;;;4.00;2.35;;;691.80;2022.40;;;;;;5093509;28;20048;-82
2022/07/06 08:38:47;;;;;;;4.82;2.45;;;691.90;2022.40;;;;;;5091455;28;20036;-83
2022/07/06 08:41:15;;;;;;;6.82;3.17;;;691.90;2022.40;;;;;;5077850;28;20077;-81
2022/07/06 08:43:41;;;;;;;3.83;2.67;;;691.80;2022.40;;;;;;5091781;28;20031;-86
2022/07/06 08:46:07;;;;;;;8.15;2.45;;;691.70;2048.00;;;;;;5092101;28;20021;-83
2022/07/06 08:48:38;;;;;;;5.05;2.35;;;691.90;1971.20;;;;;;5091209;28;20071;-83
2022/07/06 08:51:05;;;;;;;3.42;2.60;;;692.00;1996.80;;;;;;5092812;28;20054;-87
2022/07/06 08:53:30;;;;;;;4.03;2.53;;;691.90;1971.20;;;;;;5092936;28;20382;-84
2022/07/06 08:55:56;;;;;;;6.20;2.60;;;691.90;1971.20;;;;;;5092461;28;20036;-84
2022/07/06 08:58:29;;;;;;;3.33;2.53;;;691.80;1971.20;;;;;;5091792;28;20031;-86
2022/07/06 09:00:55;;;;;;;4.88;2.50;;;691.80;1971.20;;;;;;5091857;28;20016;-87
2022/07/06 09:03:22;;;;;;;7.30;2.63;;;691.80;1996.80;;;;;;5093087;28;20038;-86
2022/07/06 09:05:50;;;;;;;4.57;2.22;;;691.90;1945.60;;;;;;5092870;28;20023;-84
2022/07/06 09:08:15;;;;;;;3.30;2.30;;;692.10;1920.00;;;;;;5091694;28;20474;-85
2022/07/06 09:10:41;;;;;;;4.43;2.15;;;692.10;1894.40;;;;;;5096849;28;20110;-87
2022/07/06 09:13:08;;;;;;;6.60;2.50;;;692.10;1894.40;;;;;;5100866;28;20039;-84
2022/07/06 09:15:35;;;;;;;5.18;2.50;;;692.10;1920.00;;;;;;5095570;28;20016;-87
2022/07/06 09:18:03;;;;;;;4.70;2.50;;;716.90;1894.40;;;;;;5102313;28;20428;-86
2022/07/06 09:20:29;;;;;;;8.85;2.75;;;717.10;1868.80;;;;;;5077608;28;20035;-87
2022/07/06 09:23:08;;;;;;;10.32;2.10;;;717.10;1894.40;;;;;;5091773;28;20105;-86
2022/07/06 09:25:35;;;;;;;9.13;2.90;;;716.90;1894.40;;;;;;5101836;28;20027;-87
2022/07/06 09:28:02;;;;;;;4.07;2.38;;;717.10;1894.40;;;;;;5099837;28;20092;-88
2022/07/06 09:30:29;;;;;;;3.60;2.33;;;717.10;1843.20;;;;;;5112081;28;20048;-86
2022/07/06 09:32:57;;;;;;;4.07;1.90;;;716.80;1868.80;;;;;;5112391;28;20020;-86
2022/07/06 09:35:35;;;;;;;4.38;2.30;;;716.90;1868.80;;;;;;5099247;28;20020;-85
2022/07/06 09:38:10;;;;;;;3.30;2.35;;;716.80;1894.40;;;;;;5092001;28;20622;-86
2022/07/06 09:40:42;;;;;;;5.30;2.53;;;716.80;1894.40;;;;;;5092906;28;20080;-85
2022/07/06 09:43:08;;;;;;;3.40;2.03;;;716.90;1868.80;;;;;;5091563;28;20031;-87
2022/07/06 09:45:35;;;;;;;3.10;2.17;;;716.90;1894.40;;;;;;5091860;28;20028;-87
2022/07/06 09:48:18;;;;;;;3.65;1.70;;;716.90;1894.40;;;;;;5091290;28;20039;-87
2022/07/06 09:50:46;;;;;;;4.20;2.05;;;716.80;1868.80;;;;;;5091991;28;20087;-86
2022/07/06 09:53:13;;;;;;;10.23;2.30;;;692.10;1843.20;;;;;;5105723;28;20113;-85
2022/07/06 09:55:44;;;;;;;2.97;2.25;;;716.80;1868.80;;;;;;5091464;28;20186;-86
2022/07/06 09:58:10;;;;;;;7.13;2.35;;;716.90;1843.20;;;;;;5090779;28;20481;-84
2022/07/06 10:00:36;;;;;;;5.85;2.40;;;716.90;1894.40;;;;;;5090867;28;20031;-85
2022/07/06 10:03:02;;;;;;;3.80;2.47;;;716.90;1868.80;;;;;;5090533;28;20116;-83
2022/07/06 10:05:31;;;;;;;5.43;2.20;;;691.90;1817.60;;;;;;5090393;28;20028;-86
2022/07/06 10:08:01;;;;;;;7.25;2.30;;;716.90;1843.20;;;;;;5090290;28;20042;-84
2022/07/06 10:10:28;;;;;;;3.83;2.28;;;716.80;1894.40;;;;;;5090992;28;20028;-82
2022/07/06 10:12:56;;;;;;;2.80;2.00;;;716.80;1920.00;;;;;;5106814;28;20465;-85
2022/07/06 10:15:24;;;;;;;3.92;2.05;;;692.10;1894.40;;;;;;5091422;28;20020;-85
2022/07/06 10:17:51;;;;;;;5.43;2.22;;;691.90;1920.00;;;;;;5089675;28;20123;-86
2022/07/06 10:20:18;;;;;;;5.30;2.00;;;691.90;1945.60;;;;;;5105663;28;20395;-83
2022/07/06 10:22:45;;;;;;;6.18;2.75;;;691.90;1971.20;;;;;;5104645;28;20039;-82
2022/07/06 10:25:11;;;;;;;6.45;2.50;;;691.80;1945.60;;;;;;5096477;28;20561;-81
2022/07/06 10:27:39;;;;;;;5.80;2.38;;;691.80;1945.60;;;;;;5094655;28;20135;-85
2022/07/06 10:30:05;;;;;;;3.88;2.45;;;691.80;1945.60;;;;;;5109115;28;20039;-85
2022/07/06 10:32:31;;;;;;;5.75;2.25;;;691.90;1945.60;;;;;;5093922;28;20032;-85
2022/07/06 10:34:56;;;;;;;2.70;2.13;;;691.90;1945.60;;;;;;5094960;28;20077;-87
2022/07/06 10:37:26;;;;;;;7.75;2.65;;;691.80;1971.20;;;;;;5102865;28;20034;-83
2022/07/06 10:42:54;;;;;;;8.85;3.20;;;691.80;1945.60;;;;;;5088290;28;20069;-91
2022/07/06 10:45:45;;;;;;;8.32;3.17;;;691.70;1996.80;;;;;;5086836;28;20020;-88
2022/07/06 10:48:11;;;;;;;8.32;2.70;;;691.90;1971.20;;;;;;5080489;28;20051;-90
2022/07/06 10:50:45;;;;;;;6.47;2.80;;;691.90;1971.20;;;;;;5094696;28;20020;-89
2022/07/06 10:53:12;;;;;;;9.60;2.90;;;692.00;1971.20;;;;;;5093280;28;20036;-90
2022/07/06 10:55:47;;;;;;;10.73;3.75;;;692.10;1945.60;;;;;;5094710;28;20032;-90
2022/07/06 10:58:14;;;;;;;5.93;2.73;;;716.80;2022.40;;;;;;5080148;28;20078;-84
2022/07/06 11:00:53;;;;;;;6.80;2.90;;;716.80;1971.20;;;;;;5095257;28;20047;-89
2022/07/06 11:03:39;;;;;;;6.97;3.10;;;716.90;2022.40;;;;;;5102604;28;20076;-87
2022/07/06 11:06:15;;;;;;;11.23;3.03;;;717.10;1971.20;;;;;;5101025;28;20024;-88
2022/07/06 11:09:02;;;;;;;8.05;2.97;;;717.20;1945.60;;;;;;5099283;28;20032;-89
2022/07/06 11:11:31;;;;;;;7.70;2.63;;;717.40;1920.00;;;;;;5098383;28;20028;-84
2022/07/06 11:14:03;;;;;;;9.50;2.72;;;717.40;1894.40;;;;;;5107131;28;20020;-88
2022/07/06 11:16:38;;;;;;;3.72;2.47;;;717.50;1894.40;;;;;;5100819;28;20028;-87
2022/07/06 11:19:14;;;;;;;4.40;2.95;;;717.40;1894.40;;;;;;5119073;28;20020;-90
2022/07/06 11:21:43;;;;;;;8.13;2.65;;;717.60;1843.20;;;;;;5097821;28;20028;-86
2022/07/06 11:24:17;;;;;;;6.32;2.78;;;742.50;1868.80;;;;;;5074968;28;20024;-90
2022/07/06 11:26:48;;;;;;;6.30;3.03;;;742.80;1792.00;;;;;;5096358;28;20110;-90
2022/07/06 11:29:17;;;;;;;4.40;2.58;;;742.50;1792.00;;;;;;5094398;28;20106;-89
2022/07/06 11:31:45;;;;;;;4.55;2.50;;;742.40;1792.00;;;;;;5093081;28;20032;-90
2022/07/06 11:34:17;;;;;;;7.43;2.53;;;742.90;1792.00;;;;;;5093088;28;20095;-87
2022/07/06 11:36:43;;;;;;;4.90;2.30;;;743.00;1792.00;;;;;;5092674;28;20409;-88
2022/07/06 11:39:08;;;;;;;3.85;2.35;;;742.80;1766.40;;;;;;5093470;28;20470;-90
2022/07/06 11:41:34;;;;;;;4.95;2.88;;;742.70;1792.00;;;;;;5092653;28;20024;-87
2022/07/06 11:44:00;;;;;;;4.82;2.58;;;742.60;1792.00;;;;;;5094731;28;20023;-89
2022/07/06 11:46:31;;;;;;;5.97;2.50;;;743.20;1740.80;;;;;;5092901;28;20027;-87
2022/07/06 11:48:59;;;;;;;3.80;2.40;;;768.20;1689.60;;;;;;5090509;28;20020;-78
2022/07/06 11:51:27;;;;;;;4.15;2.45;;;743.30;1689.60;;;;;;5092807;28;20028;-86
2022/07/06 11:53:59;;;;;;;7.25;2.92;;;743.10;1715.20;;;;;;5092567;28;20050;-91
2022/07/06 11:56:26;;;;;;;3.80;2.25;;;743.00;1740.80;;;;;;5094165;28;20047;-90
2022/07/06 11:58:54;;;;;;;5.88;2.75;;;743.30;1715.20;;;;;;5093025;28;20477;-91
2022/07/06 12:01:23;;;;;;;5.03;2.38;;;743.30;1715.20;;;;;;5093189;28;20158;-88
2022/07/06 12:03:49;;;;;;;6.47;2.45;;;743.20;1715.20;;;;;;5096031;28;20019;-89
2022/07/06 12:06:23;;;;;;;6.07;2.35;;;743.20;1715.20;;;;;;5093283;28;20016;-88
2022/07/06 12:08:57;;;;;;;4.82;2.50;;;768.20;1638.40;;;;;;5094494;28;20458;-88
2022/07/06 12:11:28;;;;;;;4.07;2.60;;;768.70;1587.20;;;;;;5089919;28;20055;-88
2022/07/06 12:13:56;;;;;;;9.30;2.30;;;768.70;1638.40;;;;;;5092707;28;20268;-89
2022/07/06 12:16:29;;;;;;;3.28;2.00;;;768.10;1612.80;;;;;;5092514;28;20030;-88
2022/07/06 12:18:55;;;;;;;4.78;2.50;;;768.10;1612.80;;;;;;5092402;28;20016;-88
2022/07/06 12:21:21;;;;;;;2.92;2.03;;;768.10;1638.40;;;;;;5092581;28;20103;-87